createdAt,value
2022-12-23T00:00:32.270Z,11.70
2022-12-23T00:03:00.437Z,11.87
2022-12-23T00:05:34.161Z,11.50
2022-12-23T00:08:07.768Z,11.50
2022-12-23T00:10:38.925Z,11.37
2022-12-23T00:13:24.809Z,10.67
2022-12-23T00:15:52.893Z,10.47
2022-12-23T00:18:20.924Z,10.87
2022-12-23T00:20:48.968Z,10.20
2022-12-23T00:23:18.377Z,10.83
2022-12-23T00:25:46.811Z,11.60
2022-12-23T00:28:16.952Z,10.73
2022-12-23T00:30:49.500Z,11.60
2022-12-23T00:33:19.878Z,10.40
2022-12-23T00:35:49.660Z,11.10
2022-12-23T00:38:41.369Z,12.60
2022-12-23T00:41:30.359Z,11.73
2022-12-23T00:43:58.570Z,11.17
2022-12-23T00:46:26.769Z,11.93
2022-12-23T00:49:12.622Z,11.97
2022-12-23T00:51:40.694Z,11.57
2022-12-23T00:54:10.165Z,11.90
2022-12-23T00:56:38.217Z,12.13
2022-12-23T00:59:06.331Z,11.20
2022-12-23T01:01:52.090Z,10.57
2022-12-23T01:04:38.228Z,11.17
2022-12-23T01:07:07.238Z,11.10
2022-12-23T01:09:37.688Z,12.57
2022-12-23T01:12:06.427Z,11.10
2022-12-23T01:14:34.664Z,12.20
2022-12-23T01:17:02.823Z,12.40
2022-12-23T01:19:31.211Z,12.13
2022-12-23T01:21:59.236Z,12.17
2022-12-23T01:24:29.125Z,12.13
2022-12-23T01:26:58.541Z,11.80
2022-12-23T01:29:26.800Z,12.73
2022-12-23T01:31:54.947Z,12.30
2022-12-23T01:34:23.016Z,11.53
2022-12-23T01:36:51.130Z,11.73
2022-12-23T01:39:19.429Z,11.13
2022-12-23T01:42:04.815Z,11.97
2022-12-23T01:45:05.708Z,11.53
2022-12-23T01:47:38.770Z,10.83
2022-12-23T01:50:12.221Z,10.67
2022-12-23T01:52:45.623Z,11.70
2022-12-23T01:55:15.501Z,11.07
2022-12-23T01:57:44.902Z,11.33
2022-12-23T02:00:32.482Z,12.33
2022-12-23T02:03:18.270Z,11.20
2022-12-23T02:05:47.148Z,11.23
2022-12-23T02:08:34.601Z,13.07
2022-12-23T02:11:21.291Z,12.47
2022-12-23T02:14:17.553Z,13.33
2022-12-23T02:16:55.048Z,12.50
2022-12-23T02:19:40.913Z,13.97
2022-12-23T02:22:32.199Z,13.57
2022-12-23T02:25:31.215Z,13.27
2022-12-23T02:28:20.941Z,13.50
2022-12-23T02:30:59.084Z,13.60
2022-12-23T02:33:41.130Z,13.77
2022-12-23T02:36:26.876Z,14.77
2022-12-23T02:39:01.871Z,13.60
2022-12-23T02:41:34.945Z,14.57
2022-12-23T02:44:10.303Z,13.47
2022-12-23T02:46:47.178Z,13.80
2022-12-23T02:49:22.170Z,13.70
2022-12-23T02:51:53.738Z,13.87
2022-12-23T02:54:27.692Z,14.20
2022-12-23T02:56:56.955Z,13.97
2022-12-23T02:59:28.799Z,12.80
2022-12-23T03:07:24.504Z,11.67
2022-12-23T03:10:04.328Z,11.10
2022-12-23T03:12:44.432Z,11.93
2022-12-23T03:15:23.610Z,10.93
2022-12-23T03:18:01.815Z,10.93
2022-12-23T03:20:40.309Z,11.37
2022-12-23T03:23:18.593Z,10.97
2022-12-23T03:25:54.647Z,11.07
2022-12-23T03:28:29.870Z,11.37
2022-12-23T03:31:00.386Z,10.50
2022-12-23T03:33:30.846Z,10.97
2022-12-23T03:36:03.333Z,11.07
2022-12-23T03:38:36.884Z,10.63
2022-12-23T03:41:09.157Z,11.23
2022-12-23T03:43:48.534Z,10.50
2022-12-23T03:46:24.727Z,10.07
2022-12-23T03:48:57.774Z,8.87
2022-12-23T03:51:28.910Z,9.53
2022-12-23T03:54:02.792Z,9.60
2022-12-23T03:56:36.660Z,9.87
2022-12-23T03:59:10.284Z,10.30
2022-12-23T04:01:49.138Z,9.87
2022-12-23T04:04:22.503Z,9.57
2022-12-23T04:06:59.082Z,10.20
2022-12-23T04:09:30.372Z,9.93
2022-12-23T04:11:59.396Z,10.53
2022-12-23T04:14:27.423Z,10.37
2022-12-23T04:16:58.413Z,9.97
2022-12-23T04:19:26.603Z,10.43
2022-12-23T04:21:56.862Z,10.60
2022-12-23T04:24:24.969Z,9.13
2022-12-23T04:26:54.497Z,9.63
2022-12-23T04:29:22.554Z,9.93
2022-12-23T04:31:50.721Z,8.97
2022-12-23T04:34:18.866Z,8.63
2022-12-23T04:36:46.935Z,7.43
2022-12-23T04:39:15.198Z,8.17
2022-12-23T04:41:43.266Z,7.63
2022-12-23T04:44:12.711Z,9.37
2022-12-23T04:46:40.871Z,8.50
2022-12-23T04:49:09.300Z,8.37
2022-12-23T04:51:37.388Z,8.20
2022-12-23T04:54:05.556Z,7.83
2022-12-23T04:56:33.615Z,8.00
2022-12-23T04:59:02.464Z,8.57
2022-12-23T05:01:32.046Z,8.47
2022-12-23T05:04:00.158Z,7.97
2022-12-23T05:06:28.334Z,7.23
2022-12-23T05:08:56.484Z,7.03
2022-12-23T05:11:24.541Z,8.13
2022-12-23T05:13:52.639Z,7.57
2022-12-23T05:16:20.774Z,7.50
2022-12-23T05:18:50.359Z,6.80
2022-12-23T05:21:18.947Z,7.30
2022-12-23T05:23:47.009Z,7.27
2022-12-23T05:26:15.144Z,7.40
2022-12-23T05:28:45.593Z,7.50
2022-12-23T05:31:14.563Z,7.73
2022-12-23T05:33:42.745Z,7.33
2022-12-23T05:36:12.834Z,8.40
2022-12-23T05:38:40.894Z,7.70
2022-12-23T05:41:09.126Z,7.53
2022-12-23T05:43:37.471Z,8.80
2022-12-23T05:46:05.781Z,7.00
2022-12-23T05:48:33.930Z,7.20
2022-12-23T05:51:01.974Z,7.60
2022-12-23T05:53:31.509Z,8.10
2022-12-23T05:55:59.547Z,7.67
2022-12-23T05:58:28.146Z,8.27
2022-12-23T06:00:56.254Z,8.17
2022-12-23T06:03:24.557Z,8.27
2022-12-23T06:05:53.280Z,7.40
2022-12-23T06:08:21.676Z,7.37
2022-12-23T06:10:51.274Z,7.80
2022-12-23T06:13:20.621Z,7.80
2022-12-23T06:15:48.839Z,7.63
2022-12-23T06:18:16.898Z,8.37
2022-12-23T06:20:47.699Z,8.20
2022-12-23T06:23:15.843Z,7.90
2022-12-23T06:25:43.989Z,7.50
2022-12-23T06:28:13.449Z,7.73
2022-12-23T06:34:32.513Z,7.57
2022-12-23T06:37:00.648Z,8.40
2022-12-23T06:39:28.826Z,8.07
2022-12-23T06:41:56.948Z,7.30
2022-12-23T06:44:26.417Z,7.50
2022-12-23T06:46:54.484Z,8.23
2022-12-23T06:49:22.604Z,9.40
2022-12-23T06:51:50.719Z,9.13
2022-12-23T06:54:18.832Z,8.40
2022-12-23T06:56:46.938Z,9.57
2022-12-23T06:59:15.248Z,9.83
2022-12-23T07:01:44.781Z,9.53
2022-12-23T07:04:12.999Z,9.50
2022-12-23T07:06:41.124Z,8.17
2022-12-23T07:09:09.236Z,9.23
2022-12-23T07:11:37.355Z,8.40
2022-12-23T07:14:05.636Z,8.40
2022-12-23T07:16:33.822Z,9.13
2022-12-23T07:19:03.557Z,8.53
2022-12-23T07:21:31.686Z,8.97
2022-12-23T07:23:59.793Z,9.50
2022-12-23T07:26:27.943Z,9.07
2022-12-23T07:28:56.041Z,9.97
2022-12-23T07:31:24.277Z,9.30
2022-12-23T07:33:52.468Z,10.20
2022-12-23T07:36:21.898Z,9.27
2022-12-23T07:38:51.829Z,9.83
2022-12-23T07:41:20.186Z,9.77
2022-12-23T07:43:48.300Z,9.50
2022-12-23T07:46:16.581Z,10.50
2022-12-23T07:48:44.707Z,9.90
2022-12-23T07:51:12.857Z,10.03
2022-12-23T07:53:42.337Z,10.37
2022-12-23T07:56:10.463Z,10.10
2022-12-23T07:58:38.561Z,10.33
2022-12-23T08:01:08.579Z,10.50
2022-12-23T08:03:37.760Z,10.57
2022-12-23T08:06:08.539Z,10.57
2022-12-23T08:08:37.152Z,9.83
2022-12-23T08:11:08.561Z,11.50
2022-12-23T08:13:38.533Z,9.10
2022-12-23T08:16:08.542Z,11.37
2022-12-23T08:18:39.099Z,11.33
2022-12-23T08:21:09.408Z,11.30
2022-12-23T08:23:37.510Z,10.47
2022-12-23T08:26:10.108Z,11.80
2022-12-23T08:28:40.544Z,11.33
2022-12-23T08:31:10.446Z,12.50
2022-12-23T08:33:40.250Z,12.57
2022-12-23T08:36:10.133Z,12.73
2022-12-23T08:38:38.700Z,12.10
2022-12-23T08:41:11.994Z,12.83
2022-12-23T08:43:40.721Z,11.87
2022-12-23T08:46:09.583Z,11.60
2022-12-23T08:48:38.134Z,12.77
2022-12-23T08:51:09.110Z,14.40
2022-12-23T08:53:39.088Z,13.43
2022-12-23T08:56:09.263Z,13.43
2022-12-23T08:58:40.479Z,14.53
2022-12-23T09:01:10.739Z,14.17
2022-12-23T09:03:39.505Z,14.53
2022-12-23T09:06:09.375Z,13.47
2022-12-23T09:08:38.344Z,14.20
2022-12-23T09:11:09.416Z,12.83
2022-12-23T09:13:38.909Z,13.80
2022-12-23T09:16:08.107Z,15.23
2022-12-23T09:18:36.680Z,13.97
2022-12-23T09:21:07.227Z,14.93
2022-12-23T09:23:35.905Z,14.37
2022-12-23T09:26:05.911Z,13.63
2022-12-23T09:28:34.021Z,14.77
2022-12-23T09:31:10.397Z,14.07
2022-12-23T09:33:38.776Z,14.07
2022-12-23T09:36:08.104Z,14.93
2022-12-23T09:38:36.777Z,16.20
2022-12-23T09:41:11.855Z,15.50
2022-12-23T09:43:49.209Z,14.57
2022-12-23T09:46:22.306Z,15.20
2022-12-23T09:49:00.820Z,14.63
2022-12-23T09:51:30.661Z,16.33
2022-12-23T09:54:07.901Z,17.87
2022-12-23T09:56:43.269Z,18.40
2022-12-23T09:59:22.394Z,17.40
2022-12-23T10:01:57.282Z,18.97
2022-12-23T10:04:40.641Z,18.07
2022-12-23T10:07:20.503Z,19.20
2022-12-23T10:09:52.397Z,20.37
2022-12-23T10:12:30.670Z,21.20
2022-12-23T10:15:04.529Z,20.40
2022-12-23T10:17:42.652Z,20.90
2022-12-23T10:20:18.242Z,21.87
2022-12-23T10:22:47.425Z,20.37
2022-12-23T10:25:19.371Z,21.77
2022-12-23T10:27:47.614Z,19.70
2022-12-23T10:33:23.392Z,19.23
2022-12-23T10:36:02.331Z,20.27
2022-12-23T10:38:49.713Z,21.73
2022-12-23T10:41:27.720Z,20.47
2022-12-23T10:44:21.277Z,20.73
2022-12-23T10:47:01.247Z,20.33
2022-12-23T10:49:40.717Z,20.57
2022-12-23T10:52:15.694Z,18.87
2022-12-23T10:54:46.753Z,17.90
2022-12-23T10:57:17.724Z,18.63
2022-12-23T10:59:46.038Z,18.03
2022-12-23T11:02:31.494Z,18.27
2022-12-23T11:05:01.022Z,17.43
2022-12-23T11:07:46.457Z,17.93
2022-12-23T11:10:19.348Z,17.77
2022-12-23T11:12:50.485Z,17.07
2022-12-23T11:15:29.146Z,17.23
2022-12-23T11:18:02.476Z,17.23
2022-12-23T11:20:32.613Z,15.33
2022-12-23T11:23:02.824Z,14.80
2022-12-23T11:25:34.953Z,15.10
2022-12-23T11:28:07.775Z,15.30
2022-12-23T11:30:39.101Z,14.10
2022-12-23T11:33:07.351Z,14.33
2022-12-23T11:35:38.244Z,13.93
2022-12-23T11:38:13.855Z,13.70
2022-12-23T11:40:42.086Z,13.57
2022-12-23T11:43:15.524Z,15.00
2022-12-23T11:45:43.684Z,13.53
2022-12-23T11:48:29.616Z,13.90
2022-12-23T11:51:04.107Z,13.27
2022-12-23T11:53:32.435Z,13.20
2022-12-23T11:56:04.206Z,14.80
2022-12-23T11:58:38.254Z,13.77
2022-12-23T12:01:15.839Z,12.20
2022-12-23T12:03:49.534Z,13.70
2022-12-23T12:06:21.549Z,13.03
2022-12-23T12:08:51.742Z,12.10
2022-12-23T12:11:26.095Z,13.07
2022-12-23T12:13:59.622Z,12.70
2022-12-23T12:16:51.755Z,13.57
2022-12-23T12:19:25.064Z,12.80
2022-12-23T12:22:00.559Z,13.07
2022-12-23T12:24:32.725Z,13.10
2022-12-23T12:27:04.682Z,12.80
2022-12-23T12:29:38.914Z,11.93
2022-12-23T12:32:16.904Z,12.27
2022-12-23T12:34:53.039Z,12.77
2022-12-23T12:37:32.958Z,12.97
2022-12-23T12:40:03.692Z,12.40
2022-12-23T12:42:37.871Z,10.90
2022-12-23T12:45:17.883Z,10.50
2022-12-23T12:47:57.840Z,9.77
2022-12-23T12:50:34.586Z,10.47
2022-12-23T12:53:13.266Z,10.63
2022-12-23T12:55:46.275Z,10.57
2022-12-23T12:58:20.879Z,9.33
2022-12-23T13:01:01.768Z,11.00
2022-12-23T13:04:06.959Z,10.90
2022-12-23T13:06:43.121Z,9.60
2022-12-23T13:09:20.202Z,8.90
2022-12-23T13:12:02.335Z,8.73
2022-12-23T13:14:39.763Z,8.03
2022-12-23T13:17:13.712Z,9.70
2022-12-23T13:19:51.908Z,8.23
2022-12-23T13:22:26.003Z,7.80
2022-12-23T13:25:02.574Z,8.10
2022-12-23T13:27:34.550Z,7.80
2022-12-23T13:30:13.963Z,7.37
2022-12-23T13:33:07.958Z,6.77
2022-12-23T13:36:05.041Z,7.73
2022-12-23T13:38:56.616Z,7.13
2022-12-23T13:41:32.260Z,7.10
2022-12-23T13:44:01.817Z,8.07
2022-12-23T13:46:45.282Z,7.40
2022-12-23T13:49:21.093Z,7.63
2022-12-23T13:51:57.133Z,7.13
2022-12-23T13:54:38.834Z,8.20
2022-12-23T13:57:17.703Z,8.87
2022-12-23T14:00:04.993Z,7.67
2022-12-23T14:02:51.811Z,7.93
2022-12-23T14:05:33.123Z,7.90
2022-12-23T14:08:02.826Z,7.10
2022-12-23T14:10:31.848Z,8.00
2022-12-23T14:13:04.389Z,7.43
2022-12-23T14:15:53.200Z,7.17
2022-12-23T14:18:43.181Z,6.20
2022-12-23T14:21:24.085Z,6.03
2022-12-23T14:24:15.798Z,6.67
2022-12-23T14:27:16.648Z,6.57
2022-12-23T14:30:04.932Z,6.33
2022-12-23T14:32:44.199Z,6.30
2022-12-23T14:35:27.961Z,6.23
2022-12-23T14:38:27.070Z,6.07
2022-12-23T14:41:24.695Z,6.27
2022-12-23T14:44:00.048Z,6.13
2022-12-23T14:46:58.038Z,6.13
2022-12-23T14:49:43.989Z,6.33
2022-12-23T14:53:00.793Z,6.00
2022-12-23T14:55:53.686Z,5.80
2022-12-23T14:59:01.663Z,6.27
2022-12-23T15:01:39.769Z,6.00
2022-12-23T15:04:15.936Z,6.00
2022-12-23T15:06:48.774Z,5.50
2022-12-23T15:09:24.602Z,5.70
2022-12-23T15:11:54.729Z,5.00
2022-12-23T15:14:32.791Z,4.83
2022-12-23T15:17:01.234Z,5.33
2022-12-23T15:19:29.764Z,5.03
2022-12-23T15:22:21.198Z,5.40
2022-12-23T15:24:52.175Z,5.00
2022-12-23T15:27:30.292Z,4.67
2022-12-23T15:29:59.443Z,4.77
2022-12-23T15:32:28.981Z,5.60
2022-12-23T15:35:06.128Z,4.67
2022-12-23T15:37:36.128Z,5.30
2022-12-23T15:40:12.783Z,4.93
2022-12-23T15:42:48.385Z,5.33
2022-12-23T15:45:32.753Z,5.43
2022-12-23T15:48:02.951Z,4.90
2022-12-23T15:50:32.276Z,6.10
2022-12-23T15:53:07.016Z,5.83
2022-12-23T15:55:37.485Z,7.23
2022-12-23T15:58:06.066Z,7.87
2022-12-23T16:00:40.067Z,8.40
2022-12-23T16:03:20.030Z,8.47
2022-12-23T16:05:48.251Z,11.07
2022-12-23T16:08:29.734Z,10.70
2022-12-23T16:11:05.371Z,8.50
2022-12-23T16:13:34.736Z,8.70
2022-12-23T16:16:33.187Z,8.13
2022-12-23T16:19:01.648Z,8.53
2022-12-23T16:21:33.811Z,7.43
2022-12-23T16:24:08.217Z,8.10
2022-12-23T16:26:42.049Z,6.87
2022-12-23T16:29:11.432Z,7.23
2022-12-23T16:31:44.288Z,7.70
2022-12-23T16:34:16.555Z,6.97
2022-12-23T16:36:44.791Z,8.13
2022-12-23T16:39:21.629Z,7.67
2022-12-23T16:41:50.119Z,8.47
2022-12-23T16:44:18.337Z,9.33
2022-12-23T16:46:50.555Z,8.53
2022-12-23T16:49:20.456Z,8.93
2022-12-23T16:51:49.180Z,9.00
2022-12-23T16:54:20.602Z,8.33
2022-12-23T16:56:49.132Z,8.50
2022-12-23T16:59:17.619Z,8.20
2022-12-23T17:01:47.598Z,8.77
2022-12-23T17:04:17.116Z,9.27
2022-12-23T17:06:46.646Z,9.07
2022-12-23T17:09:14.918Z,10.43
2022-12-23T17:11:47.389Z,9.93
2022-12-23T17:14:17.723Z,9.53
2022-12-23T17:16:46.783Z,12.03
2022-12-23T17:19:15.597Z,11.00
2022-12-23T17:21:45.704Z,11.83
2022-12-23T17:24:23.143Z,11.87
2022-12-23T17:26:53.459Z,11.77
2022-12-23T17:29:21.623Z,11.40
2022-12-23T17:31:51.261Z,12.70
2022-12-23T17:34:20.900Z,11.67
2022-12-23T17:36:50.593Z,12.90
2022-12-23T17:39:19.209Z,11.33
2022-12-23T17:41:47.871Z,12.17
2022-12-23T17:44:19.032Z,11.13
2022-12-23T17:46:48.006Z,11.13
2022-12-23T17:49:16.218Z,11.87
2022-12-23T17:51:44.496Z,9.67
2022-12-23T17:54:22.716Z,8.83
2022-12-23T17:56:51.116Z,8.53
2022-12-23T17:59:20.552Z,7.00
2022-12-23T18:01:48.780Z,7.37
2022-12-23T18:04:17.105Z,7.70
2022-12-23T18:06:45.225Z,6.30
2022-12-23T18:09:13.341Z,6.83
2022-12-23T18:11:44.480Z,6.70
2022-12-23T18:14:17.984Z,6.67
2022-12-23T18:16:47.520Z,6.37
2022-12-23T18:19:19.218Z,6.10
2022-12-23T18:21:48.099Z,5.97
2022-12-23T18:24:16.625Z,5.73
2022-12-23T18:26:45.087Z,6.40
2022-12-23T18:29:13.175Z,6.50
2022-12-23T18:31:50.931Z,8.07
2022-12-23T18:34:22.055Z,6.00
2022-12-23T18:36:52.096Z,6.67
2022-12-23T18:39:21.044Z,6.87
2022-12-23T18:41:49.452Z,7.20
2022-12-23T18:44:20.594Z,6.40
2022-12-23T18:46:49.328Z,6.53
2022-12-23T18:49:17.702Z,5.00
2022-12-23T18:51:47.413Z,4.97
2022-12-23T18:54:16.036Z,5.30
2022-12-23T18:56:44.458Z,5.90
2022-12-23T18:59:20.094Z,5.03
2022-12-23T19:01:50.896Z,5.37
2022-12-23T19:04:19.067Z,4.23
2022-12-23T19:06:48.596Z,5.97
2022-12-23T19:09:19.765Z,4.43
2022-12-23T19:11:50.159Z,5.20
2022-12-23T19:14:18.482Z,4.17
2022-12-23T19:16:51.492Z,5.70
2022-12-23T19:19:20.650Z,4.60
2022-12-23T19:21:50.052Z,5.97
2022-12-23T19:24:18.329Z,6.00
2022-12-23T19:26:46.421Z,5.73
2022-12-23T19:29:14.592Z,5.30
2022-12-23T19:31:42.774Z,5.33
2022-12-23T19:34:14.898Z,5.90
2022-12-23T19:36:43.924Z,5.70
2022-12-23T19:39:16.580Z,5.20
2022-12-23T19:41:45.430Z,5.70
2022-12-23T19:44:13.621Z,5.47
2022-12-23T19:46:41.914Z,6.77
2022-12-23T19:49:15.760Z,5.20
2022-12-23T19:51:47.712Z,6.17
2022-12-23T19:54:17.353Z,6.40
2022-12-23T19:56:45.608Z,6.47
2022-12-23T19:59:13.897Z,6.13
2022-12-23T20:01:42.128Z,6.73
2022-12-23T20:04:11.293Z,7.67
2022-12-23T20:06:40.700Z,6.10
2022-12-23T20:09:10.200Z,5.43
2022-12-23T20:11:41.668Z,6.17
2022-12-23T20:14:10.002Z,5.83
2022-12-23T20:16:39.088Z,6.00
2022-12-23T20:19:07.686Z,6.07
2022-12-23T20:21:37.481Z,6.00
2022-12-23T20:24:06.261Z,5.80
2022-12-23T20:26:34.566Z,5.17
2022-12-23T20:29:04.424Z,6.07
2022-12-23T20:31:35.428Z,5.77
2022-12-23T20:34:04.173Z,5.87
2022-12-23T20:36:35.022Z,5.57
2022-12-23T20:39:03.950Z,5.03
2022-12-23T20:41:32.698Z,5.70
2022-12-23T20:46:50.860Z,5.17
2022-12-23T20:49:19.052Z,5.23
2022-12-23T20:51:47.117Z,5.03
2022-12-23T20:54:15.255Z,4.30
2022-12-23T20:56:43.302Z,4.20
2022-12-23T20:59:15.895Z,4.37
2022-12-23T21:01:44.283Z,4.60
2022-12-23T21:04:15.888Z,5.43
2022-12-23T21:06:45.082Z,4.97
2022-12-23T21:09:15.884Z,5.50
2022-12-23T21:11:46.474Z,7.10
2022-12-23T21:14:15.225Z,6.13
2022-12-23T21:16:43.820Z,4.67
2022-12-23T21:19:18.257Z,6.00
2022-12-23T21:21:47.034Z,5.23
2022-12-23T21:24:15.307Z,4.67
2022-12-23T21:26:43.877Z,4.57
2022-12-23T21:29:12.834Z,4.17
2022-12-23T21:31:42.399Z,3.60
2022-12-23T21:34:14.244Z,4.10
2022-12-23T21:36:44.113Z,5.30
2022-12-23T21:39:15.772Z,4.47
2022-12-23T21:41:44.383Z,4.47
2022-12-23T21:44:14.661Z,3.83
2022-12-23T21:46:42.865Z,3.57
2022-12-23T21:49:11.401Z,3.63
2022-12-23T21:51:41.289Z,3.60
2022-12-23T21:54:12.209Z,4.70
2022-12-23T21:56:41.287Z,4.47
2022-12-23T21:59:13.065Z,3.13
2022-12-23T22:01:41.420Z,3.40
2022-12-23T22:04:09.731Z,3.67
2022-12-23T22:06:39.979Z,5.17
2022-12-23T22:09:11.405Z,4.10
2022-12-23T22:11:40.030Z,4.10
2022-12-23T22:14:09.968Z,4.03
2022-12-23T22:16:38.292Z,3.37
2022-12-23T22:19:08.702Z,3.37
2022-12-23T22:21:39.628Z,4.27
2022-12-23T22:24:08.464Z,4.60
2022-12-23T22:26:37.944Z,3.90
2022-12-23T22:29:07.211Z,3.30
2022-12-23T22:31:38.403Z,3.13
2022-12-23T22:34:07.617Z,3.60
2022-12-23T22:36:36.159Z,4.20
2022-12-23T22:39:06.601Z,3.27
2022-12-23T22:41:37.171Z,3.40
2022-12-23T22:44:05.486Z,3.83
2022-12-23T22:46:33.808Z,3.60
2022-12-23T22:49:02.225Z,3.33
2022-12-23T22:51:32.284Z,3.40
2022-12-23T22:54:02.589Z,3.00
2022-12-23T22:56:30.744Z,2.80
2022-12-23T22:59:00.273Z,3.40
2022-12-23T23:01:30.448Z,3.63
2022-12-23T23:04:00.472Z,3.90
2022-12-23T23:06:31.275Z,3.73
2022-12-23T23:08:59.770Z,3.50
2022-12-23T23:11:29.246Z,3.17
2022-12-23T23:13:59.712Z,3.57
2022-12-23T23:16:28.127Z,3.90
2022-12-23T23:18:56.527Z,3.40
2022-12-23T23:21:24.637Z,3.70
2022-12-23T23:23:52.877Z,3.27
2022-12-23T23:26:22.386Z,3.67
2022-12-23T23:28:50.544Z,3.50
2022-12-23T23:34:08.418Z,5.37
2022-12-23T23:36:36.550Z,5.17
2022-12-23T23:39:04.777Z,4.63
2022-12-23T23:41:32.890Z,4.00
2022-12-23T23:44:00.985Z,3.60
2022-12-23T23:46:31.761Z,3.93
2022-12-23T23:49:00.076Z,3.67
2022-12-23T23:51:28.318Z,3.33
2022-12-23T23:53:56.412Z,4.50
2022-12-23T23:56:26.281Z,3.83
2022-12-23T23:58:55.425Z,4.13
